Time,TemperatureF,DewpointF,PressureIn,WindDirection,WindDirectionDegrees,WindSpeedMPH,WindSpeedGustMPH,Humidity,HourlyPrecipIn,Conditions,Clouds,dailyrainin,SoftwareType,DateUTC
2013-01-29 00:06:00,25.6,23.0,29.80,South,173,2.0,-999.0,89,-99.99,,,0.00,weatherlink.com 1.10,2013-01-29 07:06:00,
2013-01-29 00:21:00,25.3,23.0,29.80,SSE,165,4.0,-999.0,89,-99.99,,,0.01,weatherlink.com 1.10,2013-01-29 07:21:00,
2013-01-29 00:35:00,24.9,22.0,29.80,SSW,210,5.0,-999.0,90,-99.99,,,0.01,weatherlink.com 1.10,2013-01-29 07:35:00,
2013-01-29 00:50:00,24.8,22.0,29.79,South,188,4.0,-999.0,89,-99.99,,,0.01,weatherlink.com 1.10,2013-01-29 07:50:00,
2013-01-29 01:05:00,24.2,22.0,29.79,SSE,150,10.0,-999.0,89,-99.99,,,0.02,weatherlink.com 1.10,2013-01-29 08:05:00,
2013-01-29 01:20:00,23.4,21.0,29.79,South,170,6.0,-999.0,91,-99.99,,,0.02,weatherlink.com 1.10,2013-01-29 08:20:00,
2013-01-29 01:35:00,23.0,21.0,29.79,South,190,4.0,-999.0,92,-99.99,,,0.02,weatherlink.com 1.10,2013-01-29 08:35:00,
2013-01-29 01:50:00,22.9,21.0,29.78,South,182,4.0,-999.0,91,-99.99,,,0.02,weatherlink.com 1.10,2013-01-29 08:50:00,
2013-01-29 02:05:00,23.2,21.0,29.78,SSE,167,4.0,-999.0,91,-99.99,,,0.02,weatherlink.com 1.10,2013-01-29 09:05:00,
2013-01-29 02:20:00,22.8,21.0,29.78,South,171,3.0,-999.0,91,-99.99,,,0.02,weatherlink.com 1.10,2013-01-29 09:20:00,
2013-01-29 02:36:00,22.0,20.0,29.78,SSW,203,4.0,-999.0,90,-99.99,,,0.02,weatherlink.com 1.10,2013-01-29 09:36:00,
2013-01-29 02:51:00,22.3,20.0,29.78,South,187,6.0,-999.0,91,-99.99,,,0.02,weatherlink.com 1.10,2013-01-29 09:51:00,
2013-01-29 03:06:00,22.9,21.0,29.78,SSE,160,5.0,-999.0,91,-99.99,,,0.02,weatherlink.com 1.10,2013-01-29 10:06:00,
2013-01-29 03:21:00,23.0,20.0,29.78,SSE,167,5.0,-999.0,89,-99.99,,,0.02,weatherlink.com 1.10,2013-01-29 10:21:00,
2013-01-29 03:36:00,22.4,20.0,29.77,SSE,148,6.0,-999.0,89,-99.99,,,0.02,weatherlink.com 1.10,2013-01-29 10:36:00,
2013-01-29 03:51:00,21.7,18.0,29.77,SSE,149,5.0,-999.0,87,-99.99,,,0.02,weatherlink.com 1.10,2013-01-29 10:51:00,
2013-01-29 04:06:00,20.7,18.0,29.77,SSE,168,3.0,-999.0,90,-99.99,,,0.02,weatherlink.com 1.10,2013-01-29 11:06:00,
2013-01-29 04:21:00,21.3,19.0,29.77,South,172,0.0,-999.0,91,-99.99,,,0.02,weatherlink.com 1.10,2013-01-29 11:21:00,
2013-01-29 04:35:00,21.8,19.0,29.76,South,172,0.0,-999.0,90,-99.99,,,0.02,weatherlink.com 1.10,2013-01-29 11:35:00,
2013-01-29 04:50:00,21.8,19.0,29.76,South,172,1.0,-999.0,88,-99.99,,,0.02,weatherlink.com 1.10,2013-01-29 11:50:00,
2013-01-29 05:05:00,21.7,19.0,29.76,South,173,0.0,-999.0,88,-99.99,,,0.02,weatherlink.com 1.10,2013-01-29 12:05:00,
2013-01-29 05:20:00,21.2,18.0,29.76,South,173,2.0,-999.0,88,-99.99,,,0.02,weatherlink.com 1.10,2013-01-29 12:20:00,
2013-01-29 05:35:00,21.1,18.0,29.75,WNW,302,2.0,-999.0,89,-99.99,,,0.02,weatherlink.com 1.10,2013-01-29 12:35:00,
2013-01-29 05:50:00,21.0,18.0,29.76,WNW,302,2.0,-999.0,89,-99.99,,,0.02,weatherlink.com 1.10,2013-01-29 12:50:00,
2013-01-29 06:05:00,20.5,18.0,29.76,North,355,3.0,-999.0,89,-99.99,,,0.02,weatherlink.com 1.10,2013-01-29 13:05:00,
2013-01-29 06:20:00,19.7,17.0,29.76,North,349,3.0,-999.0,89,-99.99,,,0.02,weatherlink.com 1.10,2013-01-29 13:20:00,
2013-01-29 06:36:00,19.5,17.0,29.76,North,360,2.0,-999.0,89,-99.99,,,0.02,weatherlink.com 1.10,2013-01-29 13:36:00,
2013-01-29 06:51:00,19.2,17.0,29.76,NE,41,1.0,-999.0,90,-99.99,,,0.02,weatherlink.com 1.10,2013-01-29 13:51:00,
2013-01-29 07:06:00,19.1,17.0,29.77,NNE,15,4.0,-999.0,90,-99.99,,,0.02,weatherlink.com 1.10,2013-01-29 14:06:00,
2013-01-29 07:21:00,18.9,17.0,29.76,North,360,5.0,-999.0,91,-99.99,,,0.02,weatherlink.com 1.10,2013-01-29 14:21:00,
2013-01-29 07:36:00,18.7,17.0,29.76,NW,315,3.0,-999.0,91,-99.99,,,0.02,weatherlink.com 1.10,2013-01-29 14:36:00,
2013-01-29 07:51:00,19.4,16.0,29.76,WNW,288,2.0,-999.0,86,-99.99,,,0.02,weatherlink.com 1.10,2013-01-29 14:51:00,
2013-01-29 08:06:00,21.4,13.0,29.76,NW,320,4.0,-999.0,70,-99.99,,,0.02,weatherlink.com 1.10,2013-01-29 15:06:00,
2013-01-29 08:21:00,21.6,12.0,29.75,NW,315,1.0,-999.0,66,-99.99,,,0.02,weatherlink.com 1.10,2013-01-29 15:21:00,
2013-01-29 08:35:00,23.1,7.0,29.75,NW,318,4.0,-999.0,51,-99.99,,,0.02,weatherlink.com 1.10,2013-01-29 15:35:00,
2013-01-29 08:50:00,21.7,15.0,29.76,North,355,5.0,-999.0,74,-99.99,,,0.02,weatherlink.com 1.10,2013-01-29 15:50:00,
2013-01-29 09:05:00,20.8,16.0,29.76,NE,55,3.0,-999.0,80,-99.99,,,0.02,weatherlink.com 1.10,2013-01-29 16:05:00,
2013-01-29 09:21:00,21.3,16.0,29.76,SW,227,1.0,-999.0,79,-99.99,,,0.02,weatherlink.com 1.10,2013-01-29 16:21:00,
2013-01-29 09:36:00,22.2,16.0,29.76,SSW,203,1.0,-999.0,78,-99.99,,,0.02,weatherlink.com 1.10,2013-01-29 16:36:00,
2013-01-29 09:51:00,22.6,17.0,29.77,NE,46,3.0,-999.0,78,-99.99,,,0.02,weatherlink.com 1.10,2013-01-29 16:51:00,
2013-01-29 10:06:00,22.1,16.0,29.77,North,349,4.0,-999.0,76,-99.99,,,0.02,weatherlink.com 1.10,2013-01-29 17:06:00,
2013-01-29 10:21:00,22.5,15.0,29.77,West,259,3.0,-999.0,73,-99.99,,,0.02,weatherlink.com 1.10,2013-01-29 17:21:00,
2013-01-29 10:36:00,24.0,16.0,29.77,WSW,253,0.0,-999.0,71,-99.99,,,0.02,weatherlink.com 1.10,2013-01-29 17:36:00,
2013-01-29 10:51:00,23.7,16.0,29.77,NE,34,3.0,-999.0,72,-99.99,,,0.02,weatherlink.com 1.10,2013-01-29 17:51:00,
2013-01-29 11:06:00,23.8,16.0,29.76,NNE,15,0.0,-999.0,72,-99.99,,,0.02,weatherlink.com 1.10,2013-01-29 18:06:00,
2013-01-29 11:21:00,24.7,15.0,29.77,NNE,17,5.0,-999.0,67,-99.99,,,0.02,weatherlink.com 1.10,2013-01-29 18:21:00,
2013-01-29 11:35:00,24.6,14.0,29.76,NNE,12,2.0,-999.0,65,-99.99,,,0.02,weatherlink.com 1.10,2013-01-29 18:35:00,
2013-01-29 11:50:00,24.9,15.0,29.76,North,11,3.0,-999.0,66,-99.99,,,0.02,weatherlink.com 1.10,2013-01-29 18:50:00,
2013-01-29 12:05:00,25.2,13.0,29.75,NNW,339,1.0,-999.0,60,-99.99,,,0.02,weatherlink.com 1.10,2013-01-29 19:05:00,
2013-01-29 12:20:00,25.4,13.0,29.75,NNW,344,2.0,-999.0,59,-99.99,,,0.02,weatherlink.com 1.10,2013-01-29 19:20:00,
2013-01-29 12:35:00,25.4,15.0,29.75,NE,34,2.0,-999.0,64,-99.99,,,0.02,weatherlink.com 1.10,2013-01-29 19:35:00,
2013-01-29 12:50:00,25.8,15.0,29.75,NE,34,0.0,-999.0,64,-99.99,,,0.02,weatherlink.com 1.10,2013-01-29 19:50:00,
2013-01-29 13:06:00,26.6,16.0,29.75,NNE,24,2.0,-999.0,65,-99.99,,,0.02,weatherlink.com 1.10,2013-01-29 20:06:00,
2013-01-29 13:21:00,27.5,17.0,29.75,North,360,2.0,-999.0,65,-99.99,,,0.02,weatherlink.com 1.10,2013-01-29 20:21:00,
2013-01-29 13:36:00,27.8,15.0,29.75,SW,236,1.0,-999.0,59,-99.99,,,0.02,weatherlink.com 1.10,2013-01-29 20:36:00,
2013-01-29 13:51:00,28.3,16.0,29.75,SW,236,1.0,-999.0,60,-99.99,,,0.02,weatherlink.com 1.10,2013-01-29 20:51:00,
2013-01-29 14:06:00,28.7,16.0,29.75,South,178,1.0,-999.0,60,-99.99,,,0.02,weatherlink.com 1.10,2013-01-29 21:06:00,
2013-01-29 14:21:00,29.0,15.0,29.75,South,178,2.0,-999.0,57,-99.99,,,0.02,weatherlink.com 1.10,2013-01-29 21:21:00,
2013-01-29 14:36:00,29.4,15.0,29.76,South,178,0.0,-999.0,56,-99.99,,,0.02,weatherlink.com 1.10,2013-01-29 21:36:00,
2013-01-29 14:51:00,29.6,16.0,29.76,South,178,0.0,-999.0,56,-99.99,,,0.02,weatherlink.com 1.10,2013-01-29 21:51:00,
2013-01-29 15:06:00,29.6,15.0,29.77,South,178,1.0,-999.0,55,-99.99,,,0.02,weatherlink.com 1.10,2013-01-29 22:06:00,
2013-01-29 15:21:00,28.6,16.0,29.77,SSE,149,2.0,-999.0,59,-99.99,,,0.02,weatherlink.com 1.10,2013-01-29 22:21:00,
2013-01-29 15:36:00,27.8,15.0,29.78,South,180,1.0,-999.0,60,-99.99,,,0.02,weatherlink.com 1.10,2013-01-29 22:36:00,
2013-01-29 15:51:00,28.5,16.0,29.78,South,173,1.0,-999.0,59,-99.99,,,0.02,weatherlink.com 1.10,2013-01-29 22:51:00,
2013-01-29 16:05:00,28.8,16.0,29.79,South,171,2.0,-999.0,58,-99.99,,,0.02,weatherlink.com 1.10,2013-01-29 23:05:00,
2013-01-29 16:20:00,28.4,16.0,29.80,SE,138,3.0,-999.0,59,-99.99,,,0.02,weatherlink.com 1.10,2013-01-29 23:20:00,
2013-01-29 16:35:00,27.8,15.0,29.81,ESE,104,2.0,-999.0,59,-99.99,,,0.02,weatherlink.com 1.10,2013-01-29 23:35:00,
2013-01-29 16:50:00,27.4,15.0,29.82,ESE,102,3.0,-999.0,60,-99.99,,,0.02,weatherlink.com 1.10,2013-01-29 23:50:00,
2013-01-29 17:06:00,26.3,14.0,29.83,SW,214,2.0,-999.0,60,-99.99,,,0.02,weatherlink.com 1.10,2013-01-30 00:06:00,
2013-01-29 17:21:00,25.9,14.0,29.84,SW,217,3.0,-999.0,60,-99.99,,,0.02,weatherlink.com 1.10,2013-01-30 00:21:00,
2013-01-29 17:36:00,25.4,14.0,29.85,SSW,200,2.0,-999.0,63,-99.99,,,0.02,weatherlink.com 1.10,2013-01-30 00:36:00,
2013-01-29 17:51:00,24.9,15.0,29.85,SSW,200,0.0,-999.0,65,-99.99,,,0.02,weatherlink.com 1.10,2013-01-30 00:51:00,
2013-01-29 18:06:00,23.4,13.0,29.86,NNE,16,7.0,-999.0,64,-99.99,,,0.02,weatherlink.com 1.10,2013-01-30 01:06:00,
2013-01-29 18:21:00,23.3,12.0,29.87,NNE,15,13.0,-999.0,62,-99.99,,,0.02,weatherlink.com 1.10,2013-01-30 01:21:00,
2013-01-29 18:36:00,23.1,12.0,29.88,NNE,14,18.0,-999.0,62,-99.99,,,0.02,weatherlink.com 1.10,2013-01-30 01:36:00,
2013-01-29 18:51:00,22.6,12.0,29.88,North,5,14.0,-999.0,63,-99.99,,,0.02,weatherlink.com 1.10,2013-01-30 01:51:00,
2013-01-29 19:05:00,22.7,11.0,29.89,NNW,342,15.0,-999.0,62,-99.99,,,0.02,weatherlink.com 1.10,2013-01-30 02:05:00,
2013-01-29 19:20:00,22.9,10.0,29.90,NNW,342,18.0,-999.0,59,-99.99,,,0.02,weatherlink.com 1.10,2013-01-30 02:20:00,
2013-01-29 19:36:00,23.1,10.0,29.91,NW,325,6.0,-999.0,57,-99.99,,,0.02,weatherlink.com 1.10,2013-01-30 02:36:00,
2013-01-29 19:51:00,22.2,10.0,29.92,NE,36,5.0,-999.0,60,-99.99,,,0.02,weatherlink.com 1.10,2013-01-30 02:51:00,
2013-01-29 20:06:00,21.2,10.0,29.92,North,360,3.0,-999.0,63,-99.99,,,0.02,weatherlink.com 1.10,2013-01-30 03:06:00,
2013-01-29 20:21:00,20.9,11.0,29.92,NNE,19,8.0,-999.0,66,-99.99,,,0.02,weatherlink.com 1.10,2013-01-30 03:21:00,
2013-01-29 20:36:00,20.0,11.0,29.92,NW,321,3.0,-999.0,68,-99.99,,,0.02,weatherlink.com 1.10,2013-01-30 03:36:00,
2013-01-29 20:51:00,19.4,10.0,29.93,West,267,1.0,-999.0,66,-99.99,,,0.02,weatherlink.com 1.10,2013-01-30 03:51:00,
2013-01-29 21:06:00,18.9,9.0,29.93,West,280,4.0,-999.0,65,-99.99,,,0.02,weatherlink.com 1.10,2013-01-30 04:06:00,
2013-01-29 21:21:00,18.3,8.0,29.93,West,260,5.0,-999.0,64,-99.99,,,0.02,weatherlink.com 1.10,2013-01-30 04:21:00,
2013-01-29 21:36:00,17.0,7.0,29.94,SSW,192,7.0,-999.0,64,-99.99,,,0.02,weatherlink.com 1.10,2013-01-30 04:36:00,
2013-01-29 21:51:00,15.4,6.0,29.94,SW,227,5.0,-999.0,67,-99.99,,,0.02,weatherlink.com 1.10,2013-01-30 04:51:00,
2013-01-29 22:06:00,14.9,6.0,29.95,SW,231,5.0,-999.0,67,-99.99,,,0.02,weatherlink.com 1.10,2013-01-30 05:06:00,
2013-01-29 22:21:00,14.9,5.0,29.95,West,273,6.0,-999.0,66,-99.99,,,0.02,weatherlink.com 1.10,2013-01-30 05:21:00,
2013-01-29 22:36:00,16.5,6.0,29.95,West,263,4.0,-999.0,63,-99.99,,,0.02,weatherlink.com 1.10,2013-01-30 05:36:00,
2013-01-29 22:51:00,16.6,5.0,29.95,WSW,256,5.0,-999.0,60,-99.99,,,0.02,weatherlink.com 1.10,2013-01-30 05:51:00,
2013-01-29 23:06:00,16.3,5.0,29.95,WSW,240,4.0,-999.0,60,-99.99,,,0.02,weatherlink.com 1.10,2013-01-30 06:06:00,
2013-01-29 23:21:00,15.6,4.0,29.95,WSW,251,5.0,-999.0,59,-99.99,,,0.02,weatherlink.com 1.10,2013-01-30 06:21:00,
2013-01-29 23:35:00,15.3,4.0,29.96,South,169,8.0,-999.0,60,-99.99,,,0.02,weatherlink.com 1.10,2013-01-30 06:35:00,
2013-01-29 23:50:00,13.8,3.0,29.95,WSW,239,6.0,-999.0,61,-99.99,,,0.02,weatherlink.com 1.10,2013-01-30 06:50:00,